sensor_id;sensor_type;location;lat;lon;timestamp;pressure;altitude;pressure_sealevel;temperature;humidity
3598;BME280;1813;52.016;8.714;2023-04-27T00:00:44;-16261.94;;;-139.71;65.30
3598;BME280;1813;52.016;8.714;2023-04-27T00:03:21;-16261.94;;;-139.71;65.63
3598;BME280;1813;52.016;8.714;2023-04-27T00:05:56;-16261.94;;;-139.71;65.70
3598;BME280;1813;52.016;8.714;2023-04-27T00:08:30;-16261.94;;;-139.71;65.92
3598;BME280;1813;52.016;8.714;2023-04-27T00:11:04;-16261.94;;;-139.71;65.99
3598;BME280;1813;52.016;8.714;2023-04-27T00:13:39;-16261.94;;;-139.71;65.77
3598;BME280;1813;52.016;8.714;2023-04-27T00:16:13;-16261.94;;;-139.71;65.64
3598;BME280;1813;52.016;8.714;2023-04-27T00:18:49;-16261.94;;;-139.71;65.42
3598;BME280;1813;52.016;8.714;2023-04-27T00:21:23;-16261.94;;;-139.71;65.28
3598;BME280;1813;52.016;8.714;2023-04-27T00:23:57;-16261.94;;;-139.71;65.11
3598;BME280;1813;52.016;8.714;2023-04-27T00:26:32;-16261.94;;;-139.71;65.07
3598;BME280;1813;52.016;8.714;2023-04-27T00:29:06;-16261.94;;;-139.71;65.08
3598;BME280;1813;52.016;8.714;2023-04-27T00:31:40;-16261.94;;;-139.71;65.21
3598;BME280;1813;52.016;8.714;2023-04-27T00:34:17;-16261.94;;;-139.71;65.64
3598;BME280;1813;52.016;8.714;2023-04-27T00:36:51;-16261.94;;;-139.71;65.85
3598;BME280;1813;52.016;8.714;2023-04-27T00:39:25;-16261.94;;;-139.71;66.14
3598;BME280;1813;52.016;8.714;2023-04-27T00:42:00;-16261.94;;;-139.71;66.46
3598;BME280;1813;52.016;8.714;2023-04-27T00:44:34;-16261.94;;;-139.71;66.38
3598;BME280;1813;52.016;8.714;2023-04-27T00:47:09;-16261.94;;;-139.71;66.44
3598;BME280;1813;52.016;8.714;2023-04-27T00:49:47;-16261.94;;;-139.71;66.08
3598;BME280;1813;52.016;8.714;2023-04-27T00:52:22;-16261.94;;;-139.71;65.71
3598;BME280;1813;52.016;8.714;2023-04-27T00:54:56;-16261.94;;;-139.71;65.60
3598;BME280;1813;52.016;8.714;2023-04-27T00:57:30;-16261.94;;;-139.71;65.49
3598;BME280;1813;52.016;8.714;2023-04-27T01:00:06;-16261.94;;;-139.71;65.32
3598;BME280;1813;52.016;8.714;2023-04-27T01:02:41;-16261.94;;;-139.71;65.18
3598;BME280;1813;52.016;8.714;2023-04-27T01:05:18;-16261.94;;;-139.71;65.07
3598;BME280;1813;52.016;8.714;2023-04-27T01:07:54;-16261.94;;;-139.71;64.59
3598;BME280;1813;52.016;8.714;2023-04-27T01:10:28;-16261.94;;;-139.71;64.44
3598;BME280;1813;52.016;8.714;2023-04-27T01:13:02;-16261.94;;;-139.71;63.90
3598;BME280;1813;52.016;8.714;2023-04-27T01:15:36;-16261.94;;;-139.71;63.60
3598;BME280;1813;52.016;8.714;2023-04-27T01:18:14;-16261.94;;;-139.71;63.21
3598;BME280;1813;52.016;8.714;2023-04-27T01:20:51;-16261.94;;;-139.71;63.23
3598;BME280;1813;52.016;8.714;2023-04-27T01:23:28;-16261.94;;;-139.71;63.36
3598;BME280;1813;52.016;8.714;2023-04-27T01:26:02;-16261.94;;;-139.71;63.26
3598;BME280;1813;52.016;8.714;2023-04-27T01:28:37;-16261.94;;;-139.71;63.14
3598;BME280;1813;52.016;8.714;2023-04-27T01:31:11;-16261.94;;;-139.71;62.58
3598;BME280;1813;52.016;8.714;2023-04-27T01:33:45;-16261.94;;;-139.71;62.66
3598;BME280;1813;52.016;8.714;2023-04-27T01:36:19;-16261.94;;;-139.71;62.68
3598;BME280;1813;52.016;8.714;2023-04-27T01:38:56;-16261.94;;;-139.71;62.62
3598;BME280;1813;52.016;8.714;2023-04-27T01:41:30;-16261.94;;;-139.71;62.80
3598;BME280;1813;52.016;8.714;2023-04-27T01:44:05;-16261.94;;;-139.71;62.86
3598;BME280;1813;52.016;8.714;2023-04-27T01:46:39;-16261.94;;;-139.71;63.12
3598;BME280;1813;52.016;8.714;2023-04-27T01:49:14;-16261.94;;;-139.71;62.98
3598;BME280;1813;52.016;8.714;2023-04-27T01:51:48;-16261.94;;;-139.71;62.89
3598;BME280;1813;52.016;8.714;2023-04-27T01:54:25;-16261.94;;;-139.71;62.69
3598;BME280;1813;52.016;8.714;2023-04-27T01:56:59;-16261.94;;;-139.71;62.67
3598;BME280;1813;52.016;8.714;2023-04-27T01:59:33;-16261.94;;;-139.71;62.52
3598;BME280;1813;52.016;8.714;2023-04-27T02:02:08;-16261.94;;;-139.71;62.60
3598;BME280;1813;52.016;8.714;2023-04-27T02:04:42;-16261.94;;;-139.71;62.58
3598;BME280;1813;52.016;8.714;2023-04-27T02:07:16;-16261.94;;;-139.71;62.15
3598;BME280;1813;52.016;8.714;2023-04-27T02:09:53;-16261.94;;;-139.71;61.98
3598;BME280;1813;52.016;8.714;2023-04-27T02:12:27;-16261.94;;;-139.71;61.74
3598;BME280;1813;52.016;8.714;2023-04-27T02:15:01;-16261.94;;;-139.71;62.10
3598;BME280;1813;52.016;8.714;2023-04-27T02:17:36;-16261.94;;;-139.71;62.35
3598;BME280;1813;52.016;8.714;2023-04-27T02:20:10;-16261.94;;;-139.71;62.72
3598;BME280;1813;52.016;8.714;2023-04-27T02:22:44;-16261.94;;;-139.71;62.82
3598;BME280;1813;52.016;8.714;2023-04-27T02:25:22;-16261.94;;;-139.71;62.88
3598;BME280;1813;52.016;8.714;2023-04-27T02:27:56;-16261.94;;;-139.71;63.04
3598;BME280;1813;52.016;8.714;2023-04-27T02:30:30;-16261.94;;;-139.71;63.32
3598;BME280;1813;52.016;8.714;2023-04-27T02:33:04;-16261.94;;;-139.71;63.14
3598;BME280;1813;52.016;8.714;2023-04-27T02:35:38;-16261.94;;;-139.71;63.25
3598;BME280;1813;52.016;8.714;2023-04-27T02:38:12;-16261.94;;;-139.71;63.13
3598;BME280;1813;52.016;8.714;2023-04-27T02:40:52;-16261.94;;;-139.71;63.01
3598;BME280;1813;52.016;8.714;2023-04-27T02:43:26;-16261.94;;;-139.71;62.84
3598;BME280;1813;52.016;8.714;2023-04-27T02:46:01;-16261.94;;;-139.71;62.49
3598;BME280;1813;52.016;8.714;2023-04-27T02:48:36;-16261.94;;;-139.71;62.20
3598;BME280;1813;52.016;8.714;2023-04-27T02:51:10;-16261.94;;;-139.71;62.17
3598;BME280;1813;52.016;8.714;2023-04-27T02:53:44;-16261.94;;;-139.71;61.97
3598;BME280;1813;52.016;8.714;2023-04-27T02:56:21;-16261.94;;;-139.71;61.76
3598;BME280;1813;52.016;8.714;2023-04-27T02:58:56;-16261.94;;;-139.71;61.66
3598;BME280;1813;52.016;8.714;2023-04-27T03:01:30;-16261.94;;;-139.71;61.48
3598;BME280;1813;52.016;8.714;2023-04-27T03:04:04;-16261.94;;;-139.71;61.40
3598;BME280;1813;52.016;8.714;2023-04-27T03:06:38;-16261.94;;;-139.71;61.67
3598;BME280;1813;52.016;8.714;2023-04-27T03:09:13;-16261.94;;;-139.71;62.07
3598;BME280;1813;52.016;8.714;2023-04-27T03:11:50;-16261.94;;;-139.71;62.08
3598;BME280;1813;52.016;8.714;2023-04-27T03:14:24;-16261.94;;;-139.71;62.11
3598;BME280;1813;52.016;8.714;2023-04-27T03:16:59;-16261.94;;;-139.71;62.49
3598;BME280;1813;52.016;8.714;2023-04-27T03:19:33;-16261.94;;;-139.71;62.57
3598;BME280;1813;52.016;8.714;2023-04-27T03:22:07;-16261.94;;;-139.71;62.62
3598;BME280;1813;52.016;8.714;2023-04-27T03:24:42;-16261.94;;;-139.71;62.37
3598;BME280;1813;52.016;8.714;2023-04-27T03:27:18;-16261.94;;;-139.71;62.34
3598;BME280;1813;52.016;8.714;2023-04-27T03:29:54;-16261.94;;;-139.71;62.49
3598;BME280;1813;52.016;8.714;2023-04-27T03:32:28;-16261.94;;;-139.71;62.64
3598;BME280;1813;52.016;8.714;2023-04-27T03:35:06;-16261.94;;;-139.71;62.33
3598;BME280;1813;52.016;8.714;2023-04-27T03:37:40;-16261.94;;;-139.71;62.15
3598;BME280;1813;52.016;8.714;2023-04-27T03:40:16;-16261.94;;;-139.71;62.93
3598;BME280;1813;52.016;8.714;2023-04-27T03:42:53;-16261.94;;;-139.71;63.40
3598;BME280;1813;52.016;8.714;2023-04-27T03:45:27;-16261.94;;;-139.71;64.05
3598;BME280;1813;52.016;8.714;2023-04-27T03:48:02;-16261.94;;;-139.71;64.55
3598;BME280;1813;52.016;8.714;2023-04-27T03:50:37;-16261.94;;;-139.71;64.94
3598;BME280;1813;52.016;8.714;2023-04-27T03:53:12;-16261.94;;;-139.71;65.10
3598;BME280;1813;52.016;8.714;2023-04-27T03:55:46;-16261.94;;;-139.71;64.99
3598;BME280;1813;52.016;8.714;2023-04-27T03:58:25;-16261.94;;;-139.71;64.41
3598;BME280;1813;52.016;8.714;2023-04-27T04:01:16;-16261.94;;;-139.71;64.52
3598;BME280;1813;52.016;8.714;2023-04-27T04:03:52;-16261.94;;;-139.71;65.01
3598;BME280;1813;52.016;8.714;2023-04-27T04:06:26;-16261.94;;;-139.71;65.18
3598;BME280;1813;52.016;8.714;2023-04-27T04:09:01;-16261.94;;;-139.71;64.96
3598;BME280;1813;52.016;8.714;2023-04-27T04:11:35;-16261.94;;;-139.71;65.40
3598;BME280;1813;52.016;8.714;2023-04-27T04:14:16;-16261.94;;;-139.71;65.82
3598;BME280;1813;52.016;8.714;2023-04-27T04:16:50;-16261.94;;;-139.71;65.95
3598;BME280;1813;52.016;8.714;2023-04-27T04:19:25;-16261.94;;;-139.71;66.04
3598;BME280;1813;52.016;8.714;2023-04-27T04:21:59;-16261.94;;;-139.71;66.17
3598;BME280;1813;52.016;8.714;2023-04-27T04:24:33;-16261.94;;;-139.71;66.29
3598;BME280;1813;52.016;8.714;2023-04-27T04:27:09;-16261.94;;;-139.71;66.39
3598;BME280;1813;52.016;8.714;2023-04-27T04:29:46;-16261.94;;;-139.71;66.35
3598;BME280;1813;52.016;8.714;2023-04-27T04:32:20;-16261.94;;;-139.71;66.20
3598;BME280;1813;52.016;8.714;2023-04-27T04:34:54;-16261.94;;;-139.71;66.11
3598;BME280;1813;52.016;8.714;2023-04-27T04:37:32;-16261.94;;;-139.71;65.79
3598;BME280;1813;52.016;8.714;2023-04-27T04:40:08;-16261.94;;;-139.71;65.33
3598;BME280;1813;52.016;8.714;2023-04-27T04:42:43;-16261.94;;;-139.71;65.32
3598;BME280;1813;52.016;8.714;2023-04-27T04:45:20;-16261.94;;;-139.71;65.83
3598;BME280;1813;52.016;8.714;2023-04-27T04:47:55;-16261.94;;;-139.71;65.94
3598;BME280;1813;52.016;8.714;2023-04-27T04:50:30;-16261.94;;;-139.71;66.74
3598;BME280;1813;52.016;8.714;2023-04-27T04:53:05;-16261.94;;;-139.71;67.78
3598;BME280;1813;52.016;8.714;2023-04-27T04:55:39;-16261.94;;;-139.71;68.50
3598;BME280;1813;52.016;8.714;2023-04-27T04:58:14;-16261.94;;;-139.71;68.93
3598;BME280;1813;52.016;8.714;2023-04-27T05:00:51;-16261.94;;;-139.71;69.15
3598;BME280;1813;52.016;8.714;2023-04-27T05:03:25;-16261.94;;;-139.71;69.49
3598;BME280;1813;52.016;8.714;2023-04-27T05:05:59;-16261.94;;;-139.71;69.91
3598;BME280;1813;52.016;8.714;2023-04-27T05:08:35;-16261.94;;;-139.71;70.39
3598;BME280;1813;52.016;8.714;2023-04-27T05:11:10;-16261.94;;;-139.71;70.77
3598;BME280;1813;52.016;8.714;2023-04-27T05:13:44;-16261.94;;;-139.71;70.91
3598;BME280;1813;52.016;8.714;2023-04-27T05:16:21;-16261.94;;;-139.71;71.02
3598;BME280;1813;52.016;8.714;2023-04-27T05:18:56;-16261.94;;;-139.71;71.23
3598;BME280;1813;52.016;8.714;2023-04-27T05:21:30;-16261.94;;;-139.71;71.25
3598;BME280;1813;52.016;8.714;2023-04-27T05:24:04;-16261.94;;;-139.71;71.06
3598;BME280;1813;52.016;8.714;2023-04-27T05:26:38;-16261.94;;;-139.71;71.20
3598;BME280;1813;52.016;8.714;2023-04-27T05:29:12;-16261.94;;;-139.71;71.22
3598;BME280;1813;52.016;8.714;2023-04-27T05:31:49;-16261.94;;;-139.71;71.34
3598;BME280;1813;52.016;8.714;2023-04-27T05:34:24;-16261.94;;;-139.71;71.07
3598;BME280;1813;52.016;8.714;2023-04-27T05:36:58;-16261.94;;;-139.71;70.31
3598;BME280;1813;52.016;8.714;2023-04-27T05:39:32;-16261.94;;;-139.71;69.54
3598;BME280;1813;52.016;8.714;2023-04-27T05:42:07;-16261.94;;;-139.71;69.10
3598;BME280;1813;52.016;8.714;2023-04-27T05:44:41;-16261.94;;;-139.71;68.80
3598;BME280;1813;52.016;8.714;2023-04-27T05:47:17;-16261.94;;;-139.71;68.12
3598;BME280;1813;52.016;8.714;2023-04-27T05:49:51;-16261.94;;;-139.71;67.85
3598;BME280;1813;52.016;8.714;2023-04-27T05:52:26;-16261.94;;;-139.71;67.83
3598;BME280;1813;52.016;8.714;2023-04-27T05:55:00;-16261.94;;;-139.71;67.63
3598;BME280;1813;52.016;8.714;2023-04-27T05:57:36;-16261.94;;;-139.71;67.29
3598;BME280;1813;52.016;8.714;2023-04-27T06:00:12;-16261.94;;;-139.71;66.82
3598;BME280;1813;52.016;8.714;2023-04-27T06:02:49;-16261.94;;;-139.71;66.48
3598;BME280;1813;52.016;8.714;2023-04-27T06:05:25;-16261.94;;;-139.71;66.05
3598;BME280;1813;52.016;8.714;2023-04-27T06:07:59;-16261.94;;;-139.71;65.69
3598;BME280;1813;52.016;8.714;2023-04-27T06:10:35;-16261.94;;;-139.71;65.28
3598;BME280;1813;52.016;8.714;2023-04-27T06:13:10;-16261.94;;;-139.71;65.21
3598;BME280;1813;52.016;8.714;2023-04-27T06:15:44;-16261.94;;;-139.71;65.30
3598;BME280;1813;52.016;8.714;2023-04-27T06:18:28;-16261.94;;;-139.71;65.43
3598;BME280;1813;52.016;8.714;2023-04-27T06:21:02;-16261.94;;;-139.71;65.38
3598;BME280;1813;52.016;8.714;2023-04-27T06:23:36;-16261.94;;;-139.71;64.91
3598;BME280;1813;52.016;8.714;2023-04-27T06:26:11;-16261.94;;;-139.71;64.08
3598;BME280;1813;52.016;8.714;2023-04-27T06:28:45;-16261.94;;;-139.71;63.64
3598;BME280;1813;52.016;8.714;2023-04-27T06:31:19;-16261.94;;;-139.71;63.57
3598;BME280;1813;52.016;8.714;2023-04-27T06:33:56;-16261.94;;;-139.71;63.83
3598;BME280;1813;52.016;8.714;2023-04-27T06:36:30;-16261.94;;;-139.71;64.00
3598;BME280;1813;52.016;8.714;2023-04-27T06:39:04;-16261.94;;;-139.71;63.57
3598;BME280;1813;52.016;8.714;2023-04-27T06:41:38;-16261.94;;;-139.71;63.37
3598;BME280;1813;52.016;8.714;2023-04-27T06:44:22;-16261.94;;;-139.71;62.76
3598;BME280;1813;52.016;8.714;2023-04-27T06:46:57;-16261.94;;;-139.71;62.27
3598;BME280;1813;52.016;8.714;2023-04-27T06:49:33;-16261.94;;;-139.71;61.83
3598;BME280;1813;52.016;8.714;2023-04-27T06:52:07;-16261.94;;;-139.71;61.16
3598;BME280;1813;52.016;8.714;2023-04-27T06:54:45;-16261.94;;;-139.71;60.17
3598;BME280;1813;52.016;8.714;2023-04-27T06:57:19;-16261.94;;;-139.71;59.23
3598;BME280;1813;52.016;8.714;2023-04-27T06:59:54;-16261.94;;;-139.71;57.80
3598;BME280;1813;52.016;8.714;2023-04-27T07:02:28;-16261.94;;;-139.71;56.29
3598;BME280;1813;52.016;8.714;2023-04-27T07:05:06;-16261.94;;;-139.71;55.30
3598;BME280;1813;52.016;8.714;2023-04-27T07:07:40;-16261.94;;;-139.71;54.32
3598;BME280;1813;52.016;8.714;2023-04-27T07:10:14;-16261.94;;;-139.71;54.41
3598;BME280;1813;52.016;8.714;2023-04-27T07:12:49;-16261.94;;;-139.71;52.93
3598;BME280;1813;52.016;8.714;2023-04-27T07:15:25;-16261.94;;;-139.71;51.17
3598;BME280;1813;52.016;8.714;2023-04-27T07:17:59;-16261.94;;;-139.71;50.46
3598;BME280;1813;52.016;8.714;2023-04-27T07:20:37;-16261.94;;;-139.71;50.66
3598;BME280;1813;52.016;8.714;2023-04-27T07:23:11;-16261.94;;;-139.71;51.00
3598;BME280;1813;52.016;8.714;2023-04-27T07:25:46;-16261.94;;;-139.71;50.46
3598;BME280;1813;52.016;8.714;2023-04-27T07:28:20;-16261.94;;;-139.71;50.96
3598;BME280;1813;52.016;8.714;2023-04-27T07:30:54;-16261.94;;;-139.71;49.94
3598;BME280;1813;52.016;8.714;2023-04-27T07:33:29;-16261.94;;;-139.71;48.94
3598;BME280;1813;52.016;8.714;2023-04-27T07:36:06;-16261.94;;;-139.71;48.21
3598;BME280;1813;52.016;8.714;2023-04-27T07:38:41;-16261.94;;;-139.71;47.62
3598;BME280;1813;52.016;8.714;2023-04-27T07:41:15;-16261.94;;;-139.71;47.22
3598;BME280;1813;52.016;8.714;2023-04-27T07:43:50;-16261.94;;;-139.71;47.83
3598;BME280;1813;52.016;8.714;2023-04-27T07:46:26;-16261.94;;;-139.71;47.34
3598;BME280;1813;52.016;8.714;2023-04-27T07:49:01;-16261.94;;;-139.71;46.19
3598;BME280;1813;52.016;8.714;2023-04-27T07:51:38;-16261.94;;;-139.71;45.49
3598;BME280;1813;52.016;8.714;2023-04-27T07:54:12;-16261.94;;;-139.71;45.23
3598;BME280;1813;52.016;8.714;2023-04-27T07:56:47;-16261.94;;;-139.71;44.91
3598;BME280;1813;52.016;8.714;2023-04-27T07:59:21;-16261.94;;;-139.71;43.59
3598;BME280;1813;52.016;8.714;2023-04-27T08:01:56;-16261.94;;;-139.71;44.52
3598;BME280;1813;52.016;8.714;2023-04-27T08:04:30;-16261.94;;;-139.71;44.19
3598;BME280;1813;52.016;8.714;2023-04-27T08:07:07;-16261.94;;;-139.71;43.92
3598;BME280;1813;52.016;8.714;2023-04-27T08:09:41;-16261.94;;;-139.71;43.06
3598;BME280;1813;52.016;8.714;2023-04-27T08:12:15;-16261.94;;;-139.71;43.25
3598;BME280;1813;52.016;8.714;2023-04-27T08:14:49;-16261.94;;;-139.71;42.09
3598;BME280;1813;52.016;8.714;2023-04-27T08:17:24;-16261.94;;;-139.71;41.96
3598;BME280;1813;52.016;8.714;2023-04-27T08:19:58;-16261.94;;;-139.71;41.94
3598;BME280;1813;52.016;8.714;2023-04-27T08:22:35;-16261.94;;;-139.71;41.83
3598;BME280;1813;52.016;8.714;2023-04-27T08:25:10;-16261.94;;;-139.71;40.82
3598;BME280;1813;52.016;8.714;2023-04-27T08:27:44;-16261.94;;;-139.71;40.37
3598;BME280;1813;52.016;8.714;2023-04-27T08:30:18;-16261.94;;;-139.71;40.48
3598;BME280;1813;52.016;8.714;2023-04-27T08:32:53;-16261.94;;;-139.71;39.90
3598;BME280;1813;52.016;8.714;2023-04-27T08:35:27;-16261.94;;;-139.71;38.81
3598;BME280;1813;52.016;8.714;2023-04-27T08:38:04;-16261.94;;;-139.71;38.81
3598;BME280;1813;52.016;8.714;2023-04-27T08:40:41;-16261.94;;;-139.71;38.39
3598;BME280;1813;52.016;8.714;2023-04-27T08:43:15;-16261.94;;;-139.71;37.48
3598;BME280;1813;52.016;8.714;2023-04-27T08:45:49;-16261.94;;;-139.71;38.63
3598;BME280;1813;52.016;8.714;2023-04-27T08:48:23;-16261.94;;;-139.71;37.60
3598;BME280;1813;52.016;8.714;2023-04-27T08:50:58;-16261.94;;;-139.71;38.04
3598;BME280;1813;52.016;8.714;2023-04-27T08:53:45;-16261.94;;;-139.71;37.50
3598;BME280;1813;52.016;8.714;2023-04-27T08:56:21;-16261.94;;;-139.71;38.05
3598;BME280;1813;52.016;8.714;2023-04-27T08:58:57;-16261.94;;;-139.71;38.17
3598;BME280;1813;52.016;8.714;2023-04-27T09:01:33;-16261.94;;;-139.71;37.29
3598;BME280;1813;52.016;8.714;2023-04-27T09:04:07;-16261.94;;;-139.71;37.84
3598;BME280;1813;52.016;8.714;2023-04-27T09:06:41;-16261.94;;;-139.71;36.09
3598;BME280;1813;52.016;8.714;2023-04-27T09:09:25;-16261.94;;;-139.71;36.41
3598;BME280;1813;52.016;8.714;2023-04-27T09:12:00;-16261.94;;;-139.71;36.77
3598;BME280;1813;52.016;8.714;2023-04-27T09:14:34;-16261.94;;;-139.71;36.56
3598;BME280;1813;52.016;8.714;2023-04-27T09:17:08;-16261.94;;;-139.71;35.16
3598;BME280;1813;52.016;8.714;2023-04-27T09:19:44;-16261.94;;;-139.71;34.63
3598;BME280;1813;52.016;8.714;2023-04-27T09:22:20;-16261.94;;;-139.71;35.72
3598;BME280;1813;52.016;8.714;2023-04-27T09:24:57;-16261.94;;;-139.71;35.70
3598;BME280;1813;52.016;8.714;2023-04-27T09:27:33;-16261.94;;;-139.71;35.06
3598;BME280;1813;52.016;8.714;2023-04-27T09:30:14;-16261.94;;;-139.71;35.25
3598;BME280;1813;52.016;8.714;2023-04-27T09:32:51;-16261.94;;;-139.71;34.47
3598;BME280;1813;52.016;8.714;2023-04-27T09:35:27;-16261.94;;;-139.71;34.32
3598;BME280;1813;52.016;8.714;2023-04-27T09:38:02;-16261.94;;;-139.71;34.78
3598;BME280;1813;52.016;8.714;2023-04-27T09:40:41;-16261.94;;;-139.71;34.90
3598;BME280;1813;52.016;8.714;2023-04-27T09:43:15;-16261.94;;;-139.71;34.19
3598;BME280;1813;52.016;8.714;2023-04-27T09:45:52;-16261.94;;;-139.71;34.61
3598;BME280;1813;52.016;8.714;2023-04-27T09:48:27;-16261.94;;;-139.71;33.11
3598;BME280;1813;52.016;8.714;2023-04-27T09:51:01;-16261.94;;;-139.71;32.83
3598;BME280;1813;52.016;8.714;2023-04-27T09:53:39;-16261.94;;;-139.71;33.36
3598;BME280;1813;52.016;8.714;2023-04-27T09:56:28;-16261.94;;;-139.71;33.80
3598;BME280;1813;52.016;8.714;2023-04-27T09:59:19;-16261.94;;;-139.71;32.92
3598;BME280;1813;52.016;8.714;2023-04-27T10:02:01;-16261.94;;;-139.71;32.23
3598;BME280;1813;52.016;8.714;2023-04-27T10:04:48;-16261.94;;;-139.71;31.65
3598;BME280;1813;52.016;8.714;2023-04-27T10:07:26;-16261.94;;;-139.71;30.53
3598;BME280;1813;52.016;8.714;2023-04-27T10:10:03;-16261.94;;;-139.71;31.64
3598;BME280;1813;52.016;8.714;2023-04-27T10:12:54;-16261.94;;;-139.71;31.15
3598;BME280;1813;52.016;8.714;2023-04-27T10:15:29;-16261.94;;;-139.71;32.02
3598;BME280;1813;52.016;8.714;2023-04-27T10:18:04;-16261.94;;;-139.71;29.84
3598;BME280;1813;52.016;8.714;2023-04-27T10:20:40;-16261.94;;;-139.71;29.38
3598;BME280;1813;52.016;8.714;2023-04-27T10:23:23;-16261.94;;;-139.71;30.84
3598;BME280;1813;52.016;8.714;2023-04-27T10:26:06;-16261.94;;;-139.71;29.46
3598;BME280;1813;52.016;8.714;2023-04-27T10:28:43;-16261.94;;;-139.71;28.47
3598;BME280;1813;52.016;8.714;2023-04-27T10:31:26;-16261.94;;;-139.71;28.68
3598;BME280;1813;52.016;8.714;2023-04-27T10:34:08;-16261.94;;;-139.71;27.96
3598;BME280;1813;52.016;8.714;2023-04-27T10:36:43;-16261.94;;;-139.71;28.16
3598;BME280;1813;52.016;8.714;2023-04-27T10:39:20;-16261.94;;;-139.71;28.93
3598;BME280;1813;52.016;8.714;2023-04-27T10:41:57;-16261.94;;;-139.71;28.66
3598;BME280;1813;52.016;8.714;2023-04-27T10:44:35;-16261.94;;;-139.71;28.52
3598;BME280;1813;52.016;8.714;2023-04-27T10:47:14;-16261.94;;;-139.71;28.79
3598;BME280;1813;52.016;8.714;2023-04-27T10:49:51;-16261.94;;;-139.71;28.95
3598;BME280;1813;52.016;8.714;2023-04-27T10:52:25;-16261.94;;;-139.71;29.13
3598;BME280;1813;52.016;8.714;2023-04-27T10:55:11;-16261.94;;;-139.71;28.99
3598;BME280;1813;52.016;8.714;2023-04-27T10:57:50;-16261.94;;;-139.71;28.87
3598;BME280;1813;52.016;8.714;2023-04-27T11:00:28;-16261.94;;;-139.71;29.91
3598;BME280;1813;52.016;8.714;2023-04-27T11:03:11;-16261.94;;;-139.71;29.47
3598;BME280;1813;52.016;8.714;2023-04-27T11:05:48;-16261.94;;;-139.71;29.83
3598;BME280;1813;52.016;8.714;2023-04-27T11:08:22;-16261.94;;;-139.71;30.08
3598;BME280;1813;52.016;8.714;2023-04-27T11:10:57;-16261.94;;;-139.71;29.48
3598;BME280;1813;52.016;8.714;2023-04-27T11:13:32;-16261.94;;;-139.71;28.65
3598;BME280;1813;52.016;8.714;2023-04-27T11:16:09;-16261.94;;;-139.71;28.56
3598;BME280;1813;52.016;8.714;2023-04-27T11:18:43;-16261.94;;;-139.71;27.98
3598;BME280;1813;52.016;8.714;2023-04-27T11:21:18;-16261.94;;;-139.71;27.50
3598;BME280;1813;52.016;8.714;2023-04-27T11:23:53;-16261.94;;;-139.71;27.71
3598;BME280;1813;52.016;8.714;2023-04-27T11:26:30;-16261.94;;;-139.71;27.61
3598;BME280;1813;52.016;8.714;2023-04-27T11:29:05;-16261.94;;;-139.71;29.25
3598;BME280;1813;52.016;8.714;2023-04-27T11:31:44;-16261.94;;;-139.71;28.87
3598;BME280;1813;52.016;8.714;2023-04-27T11:34:19;-16261.94;;;-139.71;29.53
3598;BME280;1813;52.016;8.714;2023-04-27T11:36:58;-16261.94;;;-139.71;28.57
3598;BME280;1813;52.016;8.714;2023-04-27T11:39:33;-16261.94;;;-139.71;28.47
3598;BME280;1813;52.016;8.714;2023-04-27T11:42:17;-16261.94;;;-139.71;28.71
3598;BME280;1813;52.016;8.714;2023-04-27T11:44:55;-16261.94;;;-139.71;29.36
3598;BME280;1813;52.016;8.714;2023-04-27T11:47:33;-16261.94;;;-139.71;29.19
3598;BME280;1813;52.016;8.714;2023-04-27T11:50:08;-16261.94;;;-139.71;29.00
3598;BME280;1813;52.016;8.714;2023-04-27T11:52:41;-16261.94;;;-139.71;28.98
3598;BME280;1813;52.016;8.714;2023-04-27T11:55:22;-16261.94;;;-139.71;28.52
3598;BME280;1813;52.016;8.714;2023-04-27T11:57:57;-16261.94;;;-139.71;30.19
3598;BME280;1813;52.016;8.714;2023-04-27T12:00:32;-16261.94;;;-139.71;29.51
3598;BME280;1813;52.016;8.714;2023-04-27T12:03:09;-16261.94;;;-139.71;28.64
3598;BME280;1813;52.016;8.714;2023-04-27T12:05:50;-16261.94;;;-139.71;27.98
3598;BME280;1813;52.016;8.714;2023-04-27T12:08:24;-16261.94;;;-139.71;26.91
3598;BME280;1813;52.016;8.714;2023-04-27T12:10:59;-16261.94;;;-139.71;26.28
3598;BME280;1813;52.016;8.714;2023-04-27T12:13:34;-16261.94;;;-139.71;27.52
3598;BME280;1813;52.016;8.714;2023-04-27T12:16:09;-16261.94;;;-139.71;26.25
3598;BME280;1813;52.016;8.714;2023-04-27T12:18:49;-16261.94;;;-139.71;26.09
3598;BME280;1813;52.016;8.714;2023-04-27T12:21:23;-16261.94;;;-139.71;26.76
3598;BME280;1813;52.016;8.714;2023-04-27T12:23:57;-16261.94;;;-139.71;25.86
3598;BME280;1813;52.016;8.714;2023-04-27T12:26:33;-16261.94;;;-139.71;27.23
3598;BME280;1813;52.016;8.714;2023-04-27T12:29:06;-16261.94;;;-139.71;27.73
3598;BME280;1813;52.016;8.714;2023-04-27T12:31:41;-16261.94;;;-139.71;28.05
3598;BME280;1813;52.016;8.714;2023-04-27T12:34:18;-16261.94;;;-139.71;27.67
3598;BME280;1813;52.016;8.714;2023-04-27T12:36:52;-16261.94;;;-139.71;27.00
3598;BME280;1813;52.016;8.714;2023-04-27T12:39:26;-16261.94;;;-139.71;27.62
3598;BME280;1813;52.016;8.714;2023-04-27T12:42:01;-16261.94;;;-139.71;27.03
3598;BME280;1813;52.016;8.714;2023-04-27T12:44:36;-16261.94;;;-139.71;26.41
3598;BME280;1813;52.016;8.714;2023-04-27T12:47:11;-16261.94;;;-139.71;26.04
3598;BME280;1813;52.016;8.714;2023-04-27T12:49:48;-16261.94;;;-139.71;25.66
3598;BME280;1813;52.016;8.714;2023-04-27T12:52:22;-16261.94;;;-139.71;26.67
3598;BME280;1813;52.016;8.714;2023-04-27T12:54:56;-16261.94;;;-139.71;26.39
3598;BME280;1813;52.016;8.714;2023-04-27T12:57:31;-16261.94;;;-139.71;26.88
3598;BME280;1813;52.016;8.714;2023-04-27T13:00:08;-16261.94;;;-139.71;27.18
3598;BME280;1813;52.016;8.714;2023-04-27T13:02:43;-16261.94;;;-139.71;27.05
3598;BME280;1813;52.016;8.714;2023-04-27T13:05:19;-16261.94;;;-139.71;27.81
3598;BME280;1813;52.016;8.714;2023-04-27T13:07:54;-16261.94;;;-139.71;27.48
3598;BME280;1813;52.016;8.714;2023-04-27T13:10:28;-16261.94;;;-139.71;28.37
3598;BME280;1813;52.016;8.714;2023-04-27T13:13:02;-16261.94;;;-139.71;27.95
3598;BME280;1813;52.016;8.714;2023-04-27T13:15:37;-16261.94;;;-139.71;27.16
3598;BME280;1813;52.016;8.714;2023-04-27T13:18:12;-16261.94;;;-139.71;26.28
3598;BME280;1813;52.016;8.714;2023-04-27T13:20:49;-16261.94;;;-139.71;27.54
3598;BME280;1813;52.016;8.714;2023-04-27T13:23:24;-16261.94;;;-139.71;28.30
3598;BME280;1813;52.016;8.714;2023-04-27T13:25:59;-16261.94;;;-139.71;28.28
3598;BME280;1813;52.016;8.714;2023-04-27T13:28:33;-16261.94;;;-139.71;29.36
3598;BME280;1813;52.016;8.714;2023-04-27T13:31:08;-16261.94;;;-139.71;27.22
3598;BME280;1813;52.016;8.714;2023-04-27T13:36:30;-16261.94;;;-139.71;27.56